createdAt,value
2018-08-07T00:00:34.591Z,19.47
2018-08-07T00:03:39.382Z,19.40
2018-08-07T00:06:44.910Z,19.39
2018-08-07T00:09:50.047Z,19.28
2018-08-07T00:12:55.821Z,19.29
2018-08-07T00:16:01.867Z,19.19
2018-08-07T00:19:07.695Z,19.11
2018-08-07T00:22:13.569Z,19.09
2018-08-07T00:25:18.627Z,19.03
2018-08-07T00:28:24.135Z,18.95
2018-08-07T00:31:29.648Z,18.89
2018-08-07T00:34:36.530Z,18.84
2018-08-07T00:37:42.267Z,18.81
2018-08-07T00:40:48.320Z,18.72
2018-08-07T00:43:53.384Z,18.66
2018-08-07T00:46:58.966Z,18.63
2018-08-07T00:50:05.084Z,18.55
2018-08-07T00:53:11.228Z,18.53
2018-08-07T00:56:17.067Z,18.46
2018-08-07T00:59:23.528Z,18.41
2018-08-07T01:02:29.260Z,18.38
2018-08-07T01:05:34.060Z,18.31
2018-08-07T01:08:39.953Z,18.24
2018-08-07T01:11:45.728Z,18.22
2018-08-07T01:14:50.563Z,18.20
2018-08-07T01:17:56.672Z,18.13
2018-08-07T01:21:01.808Z,18.07
2018-08-07T01:24:06.865Z,18.01
2018-08-07T01:27:12.693Z,17.94
2018-08-07T01:30:23.269Z,17.91
2018-08-07T01:33:28.919Z,17.91
2018-08-07T01:36:35.161Z,17.85
2018-08-07T01:39:41.260Z,17.79
2018-08-07T01:42:47.352Z,17.76
2018-08-07T01:45:52.548Z,17.73
2018-08-07T01:48:57.596Z,17.70
2018-08-07T01:52:03.525Z,17.66
2018-08-07T01:55:11.038Z,17.61
2018-08-07T01:58:16.143Z,17.62
2018-08-07T02:01:21.948Z,17.54
2018-08-07T02:04:28.117Z,17.53
2018-08-07T02:07:34.253Z,17.49
2018-08-07T02:10:39.920Z,17.45
2018-08-07T02:13:46.318Z,17.40
2018-08-07T02:16:52.433Z,17.37
2018-08-07T02:19:57.554Z,17.31
2018-08-07T02:23:02.605Z,17.29
2018-08-07T02:26:07.712Z,17.23
2018-08-07T02:29:13.767Z,17.20
2018-08-07T02:32:19.585Z,17.24
2018-08-07T02:35:25.493Z,17.20
2018-08-07T02:38:31.792Z,17.22
2018-08-07T02:41:38.044Z,17.22
2018-08-07T02:44:43.566Z,17.20
2018-08-07T02:47:49.405Z,17.19
2018-08-07T02:50:55.633Z,17.19
2018-08-07T02:54:02.041Z,17.20
2018-08-07T02:57:07.800Z,17.19
2018-08-07T03:00:15.680Z,17.18
2018-08-07T03:03:21.725Z,17.19
2018-08-07T03:06:27.506Z,17.15
2018-08-07T03:09:32.601Z,17.12
2018-08-07T03:12:37.822Z,17.11
2018-08-07T03:15:42.886Z,17.10
2018-08-07T03:18:47.688Z,17.10
2018-08-07T03:21:53.597Z,17.09
2018-08-07T03:24:59.494Z,17.07
2018-08-07T03:28:04.841Z,17.05
2018-08-07T03:31:09.952Z,17.03
2018-08-07T03:34:15.005Z,17.04
2018-08-07T03:37:20.250Z,17.02
2018-08-07T03:40:25.065Z,17.01
2018-08-07T03:43:31.012Z,16.99
2018-08-07T03:46:37.013Z,16.95
2018-08-07T03:49:42.962Z,16.95
2018-08-07T03:52:48.977Z,16.95
2018-08-07T03:55:54.072Z,16.93
2018-08-07T03:59:00.052Z,16.90
2018-08-07T04:02:05.908Z,16.89
2018-08-07T04:05:11.869Z,16.83
2018-08-07T04:08:18.097Z,16.84
2018-08-07T04:11:24.290Z,16.80
2018-08-07T04:14:29.965Z,16.79
2018-08-07T04:17:35.276Z,16.77
2018-08-07T04:20:40.373Z,16.81
2018-08-07T04:23:46.054Z,16.83
2018-08-07T04:26:51.349Z,16.82
2018-08-07T04:29:56.165Z,16.82
2018-08-07T04:33:02.185Z,16.83
2018-08-07T04:36:06.984Z,16.85
2018-08-07T04:39:13.702Z,16.84
2018-08-07T04:42:19.325Z,16.88
2018-08-07T04:45:25.416Z,16.89
2018-08-07T04:48:31.552Z,16.89
2018-08-07T04:51:37.440Z,16.88
2018-08-07T04:54:43.147Z,16.93
2018-08-07T04:57:48.556Z,16.89
2018-08-07T05:00:57.547Z,16.92
2018-08-07T05:04:02.948Z,16.97
2018-08-07T05:07:08.576Z,17.01
2018-08-07T05:10:16.405Z,17.01
2018-08-07T05:13:21.466Z,17.04
2018-08-07T05:16:26.756Z,17.06
2018-08-07T05:19:31.837Z,17.07
2018-08-07T05:22:37.738Z,17.10
2018-08-07T05:25:43.963Z,17.18
2018-08-07T05:28:49.956Z,17.26
2018-08-07T05:31:55.349Z,17.33
2018-08-07T05:35:01.376Z,17.43
2018-08-07T05:38:07.144Z,17.50
2018-08-07T05:41:11.935Z,17.55
2018-08-07T05:44:17.979Z,17.61
2018-08-07T05:47:23.956Z,17.66
2018-08-07T05:50:30.447Z,17.71
2018-08-07T05:53:36.814Z,17.78
2018-08-07T05:56:43.090Z,17.83
2018-08-07T05:59:48.970Z,17.89
2018-08-07T06:02:54.237Z,17.94
2018-08-07T06:05:59.577Z,18.00
2018-08-07T06:09:07.214Z,18.08
2018-08-07T06:12:12.570Z,18.12
2018-08-07T06:15:17.993Z,18.18
2018-08-07T06:18:24.213Z,18.25
2018-08-07T06:21:30.137Z,18.32
2018-08-07T06:24:35.764Z,18.37
2018-08-07T06:27:41.570Z,18.44
2018-08-07T06:30:46.876Z,18.52
2018-08-07T06:33:52.525Z,18.58
2018-08-07T06:36:58.396Z,18.66
2018-08-07T06:40:03.501Z,18.73
2018-08-07T06:43:08.700Z,18.79
2018-08-07T06:46:14.007Z,18.85
2018-08-07T06:49:19.829Z,18.93
2018-08-07T06:52:24.886Z,19.00
2018-08-07T06:55:30.768Z,19.07
2018-08-07T06:58:36.134Z,19.14
2018-08-07T07:01:42.084Z,19.22
2018-08-07T07:04:48.069Z,19.29
2018-08-07T07:07:52.858Z,19.38
2018-08-07T07:10:58.012Z,19.44
2018-08-07T07:14:03.080Z,19.54
2018-08-07T07:17:08.458Z,19.61
2018-08-07T07:20:14.966Z,19.68
2018-08-07T07:23:20.805Z,19.76
2018-08-07T07:26:25.946Z,19.86
2018-08-07T07:29:31.419Z,19.94
2018-08-07T07:32:37.319Z,20.03
2018-08-07T07:35:42.705Z,20.11
2018-08-07T07:38:47.862Z,20.20
2018-08-07T07:41:52.957Z,20.30
2018-08-07T07:44:58.325Z,20.40
2018-08-07T07:48:03.561Z,20.48
2018-08-07T07:51:10.486Z,20.58
2018-08-07T07:54:15.814Z,20.70
2018-08-07T07:57:21.940Z,20.79
2018-08-07T08:00:28.519Z,20.91
2018-08-07T08:03:35.017Z,21.02
2018-08-07T08:06:40.894Z,21.15
2018-08-07T08:09:46.565Z,21.27
2018-08-07T08:12:51.984Z,21.39
2018-08-07T08:15:58.566Z,21.52
2018-08-07T08:19:04.216Z,21.63
2018-08-07T08:22:09.506Z,21.78
2018-08-07T08:25:15.543Z,21.92
2018-08-07T08:28:21.357Z,22.05
2018-08-07T08:31:26.918Z,22.18
2018-08-07T08:34:34.655Z,22.32
2018-08-07T08:37:40.652Z,22.48
2018-08-07T08:40:45.755Z,22.63
2018-08-07T08:43:50.855Z,22.79
2018-08-07T08:46:56.786Z,22.93
2018-08-07T08:50:02.819Z,23.05
2018-08-07T08:53:08.820Z,23.21
2018-08-07T08:56:14.628Z,23.36
2018-08-07T08:59:19.924Z,23.50
2018-08-07T09:02:25.650Z,23.65
2018-08-07T09:05:32.227Z,23.80
2018-08-07T09:08:37.305Z,23.95
2018-08-07T09:11:43.267Z,24.09
2018-08-07T09:14:49.298Z,24.23
2018-08-07T09:17:55.373Z,24.41
2018-08-07T09:21:00.514Z,24.53
2018-08-07T09:24:06.270Z,24.70
2018-08-07T09:27:11.132Z,24.84
2018-08-07T09:30:20.033Z,25.00
2018-08-07T09:33:25.940Z,25.15
2018-08-07T09:36:31.062Z,25.31
2018-08-07T09:39:36.290Z,25.46
2018-08-07T09:42:42.830Z,25.63
2018-08-07T09:45:47.977Z,25.80
2018-08-07T09:48:54.052Z,25.98
2018-08-07T09:52:00.406Z,26.18
2018-08-07T09:55:05.442Z,26.41
2018-08-07T09:58:10.918Z,26.62
2018-08-07T10:01:21.622Z,26.83
2018-08-07T10:04:27.194Z,27.02
2018-08-07T10:07:33.266Z,27.16
2018-08-07T10:10:38.395Z,27.31
2018-08-07T10:13:44.084Z,27.41
2018-08-07T10:16:50.361Z,27.54
2018-08-07T10:19:56.093Z,27.63
2018-08-07T10:23:02.244Z,27.71
2018-08-07T10:26:08.414Z,27.75
2018-08-07T10:29:14.224Z,27.82
2018-08-07T10:32:20.292Z,27.87
2018-08-07T10:35:26.279Z,27.92
2018-08-07T10:38:32.147Z,27.96
2018-08-07T10:41:38.904Z,28.05
2018-08-07T10:44:44.253Z,28.10
2018-08-07T10:47:50.762Z,28.16
2018-08-07T10:50:56.379Z,28.25
2018-08-07T10:54:02.570Z,28.30
2018-08-07T10:57:09.703Z,28.35
2018-08-07T11:00:18.904Z,28.39
2018-08-07T11:03:24.957Z,28.43
2018-08-07T11:06:31.347Z,28.51
2018-08-07T11:09:37.207Z,28.56
2018-08-07T11:12:44.544Z,28.61
2018-08-07T11:15:50.770Z,28.63
2018-08-07T11:18:56.219Z,28.65
2018-08-07T11:22:01.947Z,28.69
2018-08-07T11:25:08.156Z,28.73
2018-08-07T11:28:13.952Z,28.78
2018-08-07T11:31:19.869Z,28.85
2018-08-07T11:34:25.960Z,28.90
2018-08-07T11:37:31.824Z,28.97
2018-08-07T11:40:37.905Z,29.02
2018-08-07T11:43:43.416Z,29.05
2018-08-07T11:46:49.726Z,29.10
2018-08-07T11:49:55.450Z,29.17
2018-08-07T11:53:01.400Z,29.21
2018-08-07T11:56:07.527Z,29.30
2018-08-07T11:59:17.477Z,29.38
2018-08-07T12:02:22.850Z,29.47
2018-08-07T12:05:28.161Z,29.53
2018-08-07T12:08:34.324Z,29.59
2018-08-07T12:11:39.460Z,29.65
2018-08-07T12:14:44.929Z,29.76
2018-08-07T12:17:50.619Z,29.88
2018-08-07T12:20:56.733Z,29.98
2018-08-07T12:24:02.660Z,30.06
2018-08-07T12:27:09.588Z,30.14
2018-08-07T12:30:17.464Z,30.23
2018-08-07T12:33:23.511Z,30.32
2018-08-07T12:36:29.771Z,30.42
2018-08-07T12:39:36.265Z,30.51
2018-08-07T12:42:41.724Z,30.57
2018-08-07T12:45:46.541Z,30.63
2018-08-07T12:48:52.297Z,30.65
2018-08-07T12:51:58.381Z,30.70
2018-08-07T12:55:04.552Z,30.79
2018-08-07T12:58:10.468Z,30.85
2018-08-07T13:01:15.388Z,30.88
2018-08-07T13:04:21.580Z,30.95
2018-08-07T13:07:26.994Z,31.02
2018-08-07T13:10:32.667Z,31.06
2018-08-07T13:13:38.101Z,31.09
2018-08-07T13:16:44.262Z,31.11
2018-08-07T13:19:49.941Z,31.16
2018-08-07T13:22:55.880Z,31.18
2018-08-07T13:26:01.520Z,31.26
2018-08-07T13:29:06.984Z,31.32
2018-08-07T13:32:12.091Z,31.38
2018-08-07T13:35:18.384Z,31.43
2018-08-07T13:38:24.535Z,31.45
2018-08-07T13:41:30.412Z,31.50
2018-08-07T13:44:36.380Z,31.56
2018-08-07T13:47:41.902Z,31.67
2018-08-07T13:50:48.244Z,31.75
2018-08-07T13:53:54.218Z,31.81
2018-08-07T13:57:00.364Z,31.83
2018-08-07T14:00:10.499Z,31.87
2018-08-07T14:03:15.664Z,31.97
2018-08-07T14:06:21.680Z,32.08
2018-08-07T14:09:27.779Z,32.13
2018-08-07T14:12:34.058Z,32.22
2018-08-07T14:15:39.974Z,32.26
2018-08-07T14:18:45.843Z,32.29
2018-08-07T14:21:51.839Z,32.33
2018-08-07T14:24:57.720Z,32.38
2018-08-07T14:28:03.815Z,32.43
2018-08-07T14:31:09.806Z,32.47
2018-08-07T14:34:16.169Z,32.50
2018-08-07T14:37:22.000Z,32.53
2018-08-07T14:40:28.736Z,32.55
2018-08-07T14:43:34.830Z,32.59
2018-08-07T14:46:40.655Z,32.60
2018-08-07T14:49:46.152Z,32.60
2018-08-07T14:52:52.208Z,32.61
2018-08-07T14:55:57.657Z,32.64
2018-08-07T14:59:02.783Z,32.69
2018-08-07T15:02:08.239Z,32.72
2018-08-07T15:05:13.966Z,32.76
2018-08-07T15:08:19.825Z,32.77
2018-08-07T15:11:24.993Z,32.79
2018-08-07T15:14:30.458Z,32.77
2018-08-07T15:17:36.522Z,32.74
2018-08-07T15:20:42.728Z,32.72
2018-08-07T15:23:48.741Z,32.72
2018-08-07T15:26:54.820Z,32.73
2018-08-07T15:29:59.942Z,32.74
2018-08-07T15:33:05.078Z,32.73
2018-08-07T15:36:10.183Z,32.73
2018-08-07T15:39:15.577Z,32.71
2018-08-07T15:42:20.696Z,32.71
2018-08-07T15:45:26.573Z,32.72
2018-08-07T15:48:31.976Z,32.71
2018-08-07T15:51:38.006Z,32.69
2018-08-07T15:54:44.262Z,32.71
2018-08-07T15:57:50.077Z,32.66
2018-08-07T16:00:55.160Z,32.62
2018-08-07T16:04:01.413Z,32.55
2018-08-07T16:07:07.489Z,32.50
2018-08-07T16:10:15.542Z,32.52
2018-08-07T16:13:21.820Z,32.51
2018-08-07T16:16:27.675Z,32.46
2018-08-07T16:19:32.973Z,32.44
2018-08-07T16:22:40.203Z,32.42
2018-08-07T16:25:46.461Z,32.36
2018-08-07T16:28:53.249Z,32.33
2018-08-07T16:31:58.413Z,32.28
2018-08-07T16:35:03.612Z,32.23
2018-08-07T16:38:09.934Z,32.21
2018-08-07T16:41:14.755Z,32.19
2018-08-07T16:44:19.951Z,32.13
2018-08-07T16:47:26.077Z,32.04
2018-08-07T16:50:31.509Z,31.98
2018-08-07T16:53:36.632Z,31.95
2018-08-07T16:56:42.981Z,31.89
2018-08-07T16:59:49.242Z,31.84
2018-08-07T17:02:55.112Z,31.77
2018-08-07T17:06:01.293Z,31.70
2018-08-07T17:09:09.282Z,31.66
2018-08-07T17:12:14.348Z,31.61
2018-08-07T17:15:19.716Z,31.53
2018-08-07T17:18:25.752Z,31.47
2018-08-07T17:21:30.857Z,31.40
2018-08-07T17:24:36.172Z,31.32
2018-08-07T17:27:41.145Z,31.27
2018-08-07T17:30:46.478Z,31.20
2018-08-07T17:33:52.571Z,31.10
2018-08-07T17:36:57.885Z,31.02
2018-08-07T17:40:03.287Z,30.92
2018-08-07T17:43:08.386Z,30.83
2018-08-07T17:46:13.925Z,30.71
2018-08-07T17:49:19.260Z,30.62
2018-08-07T17:52:25.421Z,30.53
2018-08-07T17:55:31.224Z,30.44
2018-08-07T17:58:36.317Z,30.35
2018-08-07T18:01:41.548Z,30.25
2018-08-07T18:04:47.950Z,30.12
2018-08-07T18:07:55.323Z,30.07
2018-08-07T18:11:00.664Z,29.97
2018-08-07T18:14:49.707Z,29.85
2018-08-07T18:17:53.740Z,29.75
2018-08-07T18:20:58.059Z,29.68
2018-08-07T18:24:02.380Z,29.58
2018-08-07T18:27:06.400Z,29.49
2018-08-07T18:30:13.943Z,29.39
2018-08-07T18:33:18.056Z,29.31
2018-08-07T18:36:22.246Z,29.19
2018-08-07T18:39:26.259Z,29.11
2018-08-07T18:42:30.221Z,29.01
2018-08-07T18:45:34.564Z,28.91
2018-08-07T18:48:38.756Z,28.81
2018-08-07T18:51:42.780Z,28.72
2018-08-07T18:54:46.851Z,28.60
2018-08-07T18:57:51.517Z,28.52
2018-08-07T19:00:55.459Z,28.42
2018-08-07T19:03:59.687Z,28.33
2018-08-07T19:07:03.651Z,28.24
2018-08-07T19:10:14.014Z,28.13
2018-08-07T19:13:22.555Z,28.02
2018-08-07T19:16:27.000Z,27.92
2018-08-07T19:19:32.388Z,27.82
2018-08-07T19:22:36.612Z,27.71
2018-08-07T19:25:40.784Z,27.61
2018-08-07T19:28:44.741Z,27.53
2018-08-07T19:31:48.729Z,27.42
2018-08-07T19:34:52.944Z,27.34
2018-08-07T19:37:56.896Z,27.26
2018-08-07T19:41:01.216Z,27.18
2018-08-07T19:44:05.656Z,27.09
2018-08-07T19:47:09.988Z,27.01
2018-08-07T19:50:15.727Z,26.93
2018-08-07T19:53:20.008Z,26.84
2018-08-07T19:56:23.957Z,26.74
2018-08-07T19:59:27.867Z,26.64
2018-08-07T20:02:31.793Z,26.57
2018-08-07T20:05:35.807Z,26.48
2018-08-07T20:08:39.897Z,26.38
2018-08-07T20:11:43.878Z,26.29
2018-08-07T20:14:47.876Z,26.20
2018-08-07T20:17:52.660Z,26.11
2018-08-07T20:20:57.945Z,26.03
2018-08-07T20:24:01.904Z,25.96
2018-08-07T20:27:06.388Z,25.88
2018-08-07T20:30:12.427Z,25.79
2018-08-07T20:33:16.388Z,25.72
2018-08-07T20:36:20.695Z,25.65
2018-08-07T20:39:24.620Z,25.57
2018-08-07T20:42:28.600Z,25.53
2018-08-07T20:45:32.700Z,25.47
2018-08-07T20:48:36.960Z,25.41
2018-08-07T20:51:43.797Z,25.36
2018-08-07T20:54:48.308Z,25.32
2018-08-07T20:57:52.410Z,25.27
2018-08-07T21:00:58.092Z,25.24
2018-08-07T21:04:02.371Z,25.19
2018-08-07T21:07:06.584Z,25.13
2018-08-07T21:10:12.964Z,25.11
2018-08-07T21:13:16.905Z,25.06
2018-08-07T21:16:21.498Z,25.01
2018-08-07T21:19:25.600Z,24.98
2018-08-07T21:22:29.979Z,24.95
2018-08-07T21:25:34.097Z,24.90
2018-08-07T21:28:38.036Z,24.86
2018-08-07T21:31:42.452Z,24.82
2018-08-07T21:34:50.028Z,24.79
2018-08-07T21:37:54.144Z,24.76
2018-08-07T21:40:58.088Z,24.72
2018-08-07T21:44:02.036Z,24.68
2018-08-07T21:47:06.010Z,24.65
2018-08-07T21:50:14.957Z,24.62
2018-08-07T21:53:19.917Z,24.59
2018-08-07T21:56:23.948Z,24.56
2018-08-07T21:59:27.893Z,24.53
2018-08-07T22:02:32.000Z,24.52
2018-08-07T22:05:36.011Z,24.50
2018-08-07T22:08:40.003Z,24.47
2018-08-07T22:11:44.468Z,24.45
2018-08-07T22:14:49.353Z,24.42
2018-08-07T22:17:53.249Z,24.40
2018-08-07T22:20:57.169Z,24.38
2018-08-07T22:24:01.126Z,24.34
2018-08-07T22:27:05.301Z,24.33
2018-08-07T22:30:13.372Z,24.30
2018-08-07T22:33:17.662Z,24.27
2018-08-07T22:36:21.820Z,24.24
2018-08-07T22:39:26.075Z,24.22
2018-08-07T22:42:30.321Z,24.19
2018-08-07T22:45:34.669Z,24.16
2018-08-07T22:48:38.776Z,24.14
2018-08-07T22:51:43.017Z,24.10
2018-08-07T22:54:47.303Z,24.07
2018-08-07T22:57:51.230Z,24.03
2018-08-07T23:00:55.164Z,24.00
2018-08-07T23:03:59.614Z,23.96
2018-08-07T23:07:03.711Z,23.93
2018-08-07T23:10:11.912Z,23.89
2018-08-07T23:13:17.191Z,23.86
2018-08-07T23:16:21.652Z,23.83
2018-08-07T23:19:25.552Z,23.81
2018-08-07T23:22:30.815Z,23.78
2018-08-07T23:25:35.410Z,23.75
2018-08-07T23:28:39.528Z,23.73
2018-08-07T23:31:44.166Z,23.71
2018-08-07T23:34:48.516Z,23.67
2018-08-07T23:37:52.416Z,23.65
2018-08-07T23:40:56.360Z,23.62
2018-08-07T23:44:00.602Z,23.60
2018-08-07T23:47:05.536Z,23.58
2018-08-07T23:50:11.337Z,23.56
2018-08-07T23:53:15.252Z,23.53
2018-08-07T23:56:19.476Z,23.52
2018-08-07T23:59:23.629Z,23.49
